Time;durP1;ratioP1;P1;durP2;ratioP2;P2;SDS_P1;SDS_P2;PMS_P1;PMS_P2;Temp;Humidity;BMP_temperature;BMP_pressure;BME280_temperature;BME280_humidity;BME280_pressure;Samples;Min_cycle;Max_cycle;Signal;HPM_P1;HPM_P2
2023/12/15 00:00:31;;;;;;;14.07;6.03;;;;;;;8.62;68.69;102692.28;6195194;23;20088;-67
2023/12/15 00:02:59;;;;;;;10.23;5.75;;;;;;;8.62;69.01;102690.44;6195133;23;20027;-67
2023/12/15 00:05:27;;;;;;;13.38;5.47;;;;;;;8.63;68.96;102683.25;6194123;23;20026;-67
2023/12/15 00:07:55;;;;;;;11.23;5.57;;;;;;;8.61;68.87;102691.44;6194368;23;20021;-67
2023/12/15 00:10:23;;;;;;;12.45;5.82;;;;;;;8.63;69.45;102696.66;6194480;23;20045;-67
2023/12/15 00:12:51;;;;;;;11.27;5.95;;;;;;;8.61;68.84;102704.84;6194387;23;20029;-67
2023/12/15 00:15:18;;;;;;;8.93;5.72;;;;;;;8.62;68.84;102709.22;6195164;23;20025;-67
2023/12/15 00:17:48;;;;;;;13.25;6.03;;;;;;;8.62;68.87;102713.72;6194480;23;20025;-67
2023/12/15 00:20:16;;;;;;;8.98;5.50;;;;;;;8.62;69.13;102719.09;6194065;23;20017;-67
2023/12/15 00:22:46;;;;;;;10.95;5.80;;;;;;;8.62;68.93;102733.34;6194195;23;20056;-67
2023/12/15 00:25:14;;;;;;;11.88;5.95;;;;;;;8.56;69.79;102728.63;6195237;23;20335;-66
2023/12/15 00:27:42;;;;;;;8.30;5.32;;;;;;;8.57;69.15;102732.97;6194286;23;20040;-67
2023/12/15 00:30:11;;;;;;;11.85;6.20;;;;;;;8.61;69.55;102747.72;6194715;23;20086;-67
2023/12/15 00:32:39;;;;;;;11.73;6.65;;;;;;;8.60;69.12;102738.00;6194472;23;20025;-67
2023/12/15 00:35:08;;;;;;;11.88;6.60;;;;;;;8.60;69.76;102737.16;6193558;23;20022;-68
2023/12/15 00:37:36;;;;;;;12.27;6.15;;;;;;;8.59;69.42;102732.81;6194876;23;20052;-67
2023/12/15 00:40:06;;;;;;;11.80;6.25;;;;;;;8.58;69.59;102731.97;6194129;23;20021;-67
2023/12/15 00:42:34;;;;;;;10.10;6.53;;;;;;;8.58;69.19;102733.81;6195795;23;20474;-67
2023/12/15 00:45:02;;;;;;;9.93;6.55;;;;;;;8.60;69.85;102734.50;6196686;23;20024;-68
2023/12/15 00:47:30;;;;;;;9.88;5.47;;;;;;;8.52;69.61;102716.53;6196759;23;20025;-67
2023/12/15 00:49:59;;;;;;;12.60;6.60;;;;;;;8.59;69.49;102728.28;6195939;23;20049;-68
2023/12/15 00:52:29;;;;;;;11.25;6.45;;;;;;;8.59;69.25;102733.66;6196356;23;20024;-68
2023/12/15 00:54:57;;;;;;;9.93;6.15;;;;;;;8.60;70.10;102739.84;6195961;23;20117;-68
2023/12/15 00:57:25;;;;;;;11.82;6.32;;;;;;;8.58;69.69;102734.66;6196125;23;20039;-68
2023/12/15 00:59:52;;;;;;;10.35;6.70;;;;;;;8.60;69.60;102737.16;6196077;23;20067;-67
2023/12/15 01:02:20;;;;;;;12.27;6.75;;;;;;;8.58;70.26;102736.50;6197494;23;20060;-67
2023/12/15 01:04:47;;;;;;;14.23;6.82;;;;;;;8.57;69.96;102735.66;6195396;23;20025;-67
2023/12/15 01:07:15;;;;;;;12.00;6.32;;;;;;;8.57;70.26;102741.03;6196547;23;20021;-67
2023/12/15 01:09:44;;;;;;;11.05;6.95;;;;;;;8.58;69.73;102755.25;6195435;23;20021;-67
2023/12/15 01:12:12;;;;;;;13.15;7.10;;;;;;;8.59;70.37;102759.63;6196226;23;20035;-67
2023/12/15 01:14:39;;;;;;;11.43;7.80;;;;;;;8.59;70.42;102763.13;6195797;23;20024;-67
2023/12/15 01:17:07;;;;;;;11.32;6.75;;;;;;;8.59;69.89;102759.63;6196249;23;20080;-67
2023/12/15 01:19:35;;;;;;;11.30;6.88;;;;;;;8.57;69.96;102757.09;6195044;23;20017;-67
2023/12/15 01:22:03;;;;;;;11.43;6.57;;;;;;;8.58;70.43;102757.94;6195270;23;20077;-67
2023/12/15 01:24:31;;;;;;;10.60;6.90;;;;;;;8.58;69.71;102760.63;6195360;23;20262;-68
2023/12/15 01:27:00;;;;;;;9.93;6.13;;;;;;;8.57;70.43;102759.78;6195850;23;20056;-67
2023/12/15 01:29:28;;;;;;;9.73;6.50;;;;;;;8.57;69.82;102769.66;6196554;23;20021;-67
2023/12/15 01:31:56;;;;;;;12.23;7.55;;;;;;;8.57;69.73;102772.34;6196582;23;20043;-68
2023/12/15 01:34:23;;;;;;;11.40;6.65;;;;;;;8.57;70.02;102773.19;6194322;23;20059;-67
2023/12/15 01:36:51;;;;;;;10.30;7.13;;;;;;;8.57;70.58;102775.84;6196669;23;20025;-67
2023/12/15 01:39:19;;;;;;;10.80;7.72;;;;;;;8.54;70.36;102769.97;6195318;23;20028;-67
2023/12/15 01:41:47;;;;;;;12.48;6.55;;;;;;;8.57;70.39;102775.03;6195811;23;20052;-67
2023/12/15 01:44:16;;;;;;;9.60;6.57;;;;;;;8.58;70.84;102782.91;6196064;23;20406;-67
2023/12/15 01:46:44;;;;;;;12.68;6.35;;;;;;;8.59;69.93;102775.69;6196226;23;20124;-68
2023/12/15 01:49:11;;;;;;;12.55;6.78;;;;;;;8.60;69.98;102780.91;6195101;23;20020;-67
2023/12/15 01:51:39;;;;;;;12.55;7.25;;;;;;;8.61;70.36;102779.06;6195928;23;20032;-67
2023/12/15 01:54:07;;;;;;;11.18;6.30;;;;;;;8.61;70.42;102773.69;6195511;23;20095;-67
2023/12/15 01:56:36;;;;;;;12.80;7.50;;;;;;;8.60;70.09;102778.22;6196224;23;20028;-68
2023/12/15 01:59:04;;;;;;;11.10;6.97;;;;;;;8.61;70.73;102782.56;6194787;23;20025;-68
2023/12/15 02:01:33;;;;;;;10.23;6.07;;;;;;;8.62;70.07;102791.47;6195153;23;20091;-67
2023/12/15 02:04:01;;;;;;;9.63;6.40;;;;;;;8.60;70.20;102793.47;6194899;23;20024;-67
2023/12/15 02:06:29;;;;;;;10.45;5.82;;;;;;;8.61;70.09;102801.34;6196533;23;20116;-67
2023/12/15 02:08:57;;;;;;;13.20;7.43;;;;;;;8.63;70.61;102802.00;6195420;23;20056;-67
2023/12/15 02:11:25;;;;;;;12.50;7.10;;;;;;;8.62;70.08;102808.38;6195472;23;20029;-67
2023/12/15 02:13:52;;;;;;;10.15;5.78;;;;;;;8.62;70.46;102796.81;6194891;23;20021;-67
2023/12/15 02:16:20;;;;;;;8.48;6.10;;;;;;;8.55;70.80;102790.41;6196223;23;20052;-67
2023/12/15 02:18:49;;;;;;;8.23;5.38;;;;;;;8.62;70.38;102811.06;6194662;23;20051;-67
2023/12/15 02:21:17;;;;;;;9.93;6.82;;;;;;;8.61;70.19;102801.34;6195795;23;20021;-67
2023/12/15 02:23:46;;;;;;;11.15;5.53;;;;;;;8.60;71.11;102796.97;6194657;23;20025;-67
2023/12/15 02:26:14;;;;;;;9.38;5.80;;;;;;;8.60;70.91;102801.50;6195624;23;20021;-67
2023/12/15 02:28:42;;;;;;;10.27;6.00;;;;;;;8.61;71.11;102814.75;6195553;23;20076;-67
2023/12/15 02:31:10;;;;;;;8.95;5.72;;;;;;;8.62;70.94;102821.78;6196038;23;20021;-67
2023/12/15 02:33:37;;;;;;;8.32;5.95;;;;;;;8.63;70.67;102818.09;6194969;23;20025;-67
2023/12/15 02:36:06;;;;;;;8.90;5.90;;;;;;;8.63;71.11;102819.94;6195024;23;21063;-67
2023/12/15 02:38:34;;;;;;;10.07;6.38;;;;;;;8.61;70.98;102820.09;6194779;23;20025;-67
2023/12/15 02:41:03;;;;;;;8.60;5.90;;;;;;;8.61;70.62;102830.81;6195452;23;20017;-67
2023/12/15 02:43:31;;;;;;;8.52;6.00;;;;;;;8.61;70.81;102832.66;6195327;23;20104;-66
2023/12/15 02:45:59;;;;;;;9.50;6.07;;;;;;;8.60;70.96;102834.50;6195443;23;20028;-67
2023/12/15 02:48:26;;;;;;;9.73;6.80;;;;;;;8.58;71.32;102839.19;6194158;23;20035;-67
2023/12/15 02:50:54;;;;;;;32.45;7.25;;;;;;;8.59;70.81;102835.50;6185327;23;20043;-68
2023/12/15 02:53:22;;;;;;;9.75;6.07;;;;;;;8.60;70.76;102839.03;6195194;23;20021;-68
2023/12/15 02:55:50;;;;;;;10.65;6.57;;;;;;;8.61;71.13;102852.25;6195077;23;20025;-68
2023/12/15 02:58:20;;;;;;;10.88;6.63;;;;;;;8.60;71.30;102861.28;6194915;23;20025;-67
2023/12/15 03:00:47;;;;;;;11.13;6.97;;;;;;;8.59;71.39;102853.41;6195123;23;20029;-67
2023/12/15 03:03:16;;;;;;;11.55;7.50;;;;;;;8.60;70.98;102855.09;6195086;23;20075;-67
2023/12/15 03:05:44;;;;;;;10.25;6.90;;;;;;;8.60;71.00;102860.47;6193431;23;20400;-68
2023/12/15 03:08:11;;;;;;;10.15;7.05;;;;;;;8.58;71.46;102868.66;6195403;23;20029;-67
2023/12/15 03:10:39;;;;;;;10.32;7.20;;;;;;;8.58;71.58;102873.19;6195328;23;20068;-67
2023/12/15 03:13:07;;;;;;;10.32;6.93;;;;;;;8.58;71.04;102878.53;6195288;23;20029;-67
2023/12/15 03:15:36;;;;;;;11.07;6.60;;;;;;;8.56;71.77;102875.19;6195015;23;20025;-67
2023/12/15 03:18:04;;;;;;;11.95;7.45;;;;;;;8.57;71.85;102880.38;6195034;23;20024;-67
2023/12/15 03:20:32;;;;;;;10.90;6.97;;;;;;;8.58;71.70;102886.56;6193297;23;20028;-67
2023/12/15 03:23:01;;;;;;;12.88;7.10;;;;;;;8.57;71.99;102884.91;6194759;23;20025;-67
2023/12/15 03:25:29;;;;;;;10.88;7.53;;;;;;;8.57;71.36;102892.94;6195328;23;20025;-67
2023/12/15 03:27:57;;;;;;;12.23;7.55;;;;;;;8.57;71.77;102896.47;6194219;23;20030;-67
2023/12/15 03:30:25;;;;;;;12.20;7.65;;;;;;;8.56;71.19;102902.81;6194918;23;20087;-67
2023/12/15 03:32:54;;;;;;;14.27;8.73;;;;;;;8.56;72.22;102910.84;6195590;23;20025;-67
2023/12/15 03:35:22;;;;;;;13.48;8.00;;;;;;;8.57;71.27;102909.03;6194096;23;20048;-67
2023/12/15 03:37:50;;;;;;;16.40;9.93;;;;;;;8.55;71.50;102914.53;6195877;23;20025;-67
2023/12/15 03:40:18;;;;;;;12.68;8.23;;;;;;;8.57;71.49;102919.75;6194410;23;20025;-67
2023/12/15 03:42:46;;;;;;;16.95;8.77;;;;;;;8.56;71.36;102918.91;6195101;23;20029;-67
2023/12/15 03:45:13;;;;;;;16.40;10.20;;;;;;;8.59;71.56;102923.09;6194751;23;20056;-67
2023/12/15 03:47:41;;;;;;;15.85;9.48;;;;;;;8.58;72.30;102924.94;6195686;23;20021;-67
2023/12/15 03:50:12;;;;;;;17.77;9.55;;;;;;;8.50;71.50;102908.81;6193690;23;20025;-67
2023/12/15 03:52:39;;;;;;;15.55;8.93;;;;;;;8.61;71.55;102931.81;6194878;23;20021;-68
2023/12/15 03:55:08;;;;;;;15.48;10.13;;;;;;;8.61;71.74;102934.50;6194304;23;20060;-67
2023/12/15 03:57:36;;;;;;;15.38;9.52;;;;;;;8.61;71.95;102926.47;6195248;23;20025;-67
2023/12/15 04:00:07;;;;;;;18.67;11.23;;;;;;;8.61;71.63;102923.78;6194705;23;20391;-68
2023/12/15 04:02:36;;;;;;;14.68;9.30;;;;;;;8.61;72.23;102931.81;6195467;23;20021;-67
2023/12/15 04:05:04;;;;;;;20.75;10.90;;;;;;;8.62;72.03;102928.16;6193439;23;20040;-68
2023/12/15 04:07:33;;;;;;;21.08;10.40;;;;;;;8.61;71.54;102931.81;6194988;23;20079;-68
2023/12/15 04:10:02;;;;;;;16.27;10.32;;;;;;;8.62;71.75;102928.97;6194932;23;20036;-68
2023/12/15 04:12:29;;;;;;;15.15;10.35;;;;;;;8.64;71.51;102942.22;6194901;23;20087;-68
2023/12/15 04:14:57;;;;;;;16.30;9.38;;;;;;;8.63;72.18;102938.72;6194985;23;20233;-68
2023/12/15 04:17:25;;;;;;;19.60;10.20;;;;;;;8.64;71.60;102942.22;6196776;23;20055;-68
2023/12/15 04:19:53;;;;;;;20.40;10.27;;;;;;;8.63;71.92;102948.59;6194871;23;20029;-68
2023/12/15 04:22:22;;;;;;;18.85;10.40;;;;;;;8.63;71.83;102959.31;6196976;23;20100;-68
2023/12/15 04:24:51;;;;;;;23.30;11.75;;;;;;;8.62;72.27;102958.47;6196646;23;20028;-68
2023/12/15 04:27:19;;;;;;;19.45;11.10;;;;;;;8.63;72.43;102951.28;6196627;23;20032;-68
2023/12/15 04:29:47;;;;;;;24.67;12.32;;;;;;;8.63;72.34;102956.63;6195917;23;20027;-69
2023/12/15 04:32:14;;;;;;;19.77;11.93;;;;;;;8.62;71.66;102965.66;6197489;23;20028;-68
2023/12/15 04:34:42;;;;;;;24.38;12.25;;;;;;;8.61;72.21;102975.56;6195560;23;20087;-68
2023/12/15 04:37:10;;;;;;;22.48;11.88;;;;;;;8.61;72.03;102977.38;6196865;23;20051;-68
2023/12/15 04:39:38;;;;;;;28.65;12.77;;;;;;;8.62;72.05;102976.38;6197055;23;20025;-68
2023/12/15 04:42:07;;;;;;;18.88;11.70;;;;;;;8.60;72.19;102979.22;6196921;23;20021;-68
2023/12/15 04:44:35;;;;;;;25.48;13.57;;;;;;;8.60;72.30;102968.50;6196698;23;20025;-68
2023/12/15 04:47:04;;;;;;;26.58;12.55;;;;;;;8.60;72.69;102979.22;6197324;23;20116;-68
2023/12/15 04:49:31;;;;;;;22.25;13.00;;;;;;;8.60;72.52;102973.88;6195292;23;20029;-68
2023/12/15 04:52:00;;;;;;;24.60;13.10;;;;;;;8.60;72.87;102975.72;6196608;23;20023;-68
2023/12/15 04:54:27;;;;;;;25.98;13.15;;;;;;;8.57;72.00;102966.13;6196652;23;20024;-68
2023/12/15 04:56:55;;;;;;;26.83;13.20;;;;;;;8.60;72.61;102979.22;6195947;23;20028;-68
2023/12/15 04:59:25;;;;;;;32.42;17.63;;;;;;;8.60;72.30;102965.81;6196244;23;20103;-68
2023/12/15 05:01:53;;;;;;;27.00;13.75;;;;;;;8.60;72.70;102973.88;6196957;23;20017;-68
2023/12/15 05:04:21;;;;;;;30.85;16.25;;;;;;;8.60;72.75;102984.59;6195320;23;20032;-68
2023/12/15 05:06:49;;;;;;;28.48;14.50;;;;;;;8.60;72.58;102986.44;6196990;23;20056;-68
2023/12/15 05:09:17;;;;;;;31.60;14.73;;;;;;;8.60;72.75;102983.75;6196151;23;20099;-68
2023/12/15 05:11:44;;;;;;;29.73;14.80;;;;;;;8.59;72.63;102980.22;6196961;23;20048;-68
2023/12/15 05:14:12;;;;;;;23.15;14.65;;;;;;;8.60;72.41;103000.66;6195950;23;20025;-68
2023/12/15 05:16:41;;;;;;;34.90;15.57;;;;;;;8.59;72.20;103001.66;6196896;23;20144;-68
2023/12/15 05:19:09;;;;;;;28.48;15.55;;;;;;;8.59;73.13;103006.19;6196084;23;20197;-68
2023/12/15 05:21:37;;;;;;;30.80;15.13;;;;;;;8.59;72.52;103007.03;6195041;23;20021;-68
2023/12/15 05:24:05;;;;;;;30.88;16.50;;;;;;;8.59;72.99;103011.53;6196647;23;20025;-68
2023/12/15 05:26:34;;;;;;;35.42;16.77;;;;;;;8.59;73.13;103004.34;6196016;23;20029;-67
2023/12/15 05:29:02;;;;;;;36.60;17.83;;;;;;;8.59;72.85;103017.75;6195797;23;20025;-67
2023/12/15 05:31:30;;;;;;;31.15;16.73;;;;;;;8.60;73.32;103010.56;6196245;23;20025;-68
2023/12/15 05:33:59;;;;;;;28.17;15.32;;;;;;;8.60;72.74;103019.44;6195186;23;20110;-68
2023/12/15 05:36:27;;;;;;;34.15;16.92;;;;;;;8.60;72.68;103018.59;6194798;23;20025;-71
2023/12/15 05:38:54;;;;;;;32.42;16.20;;;;;;;8.60;72.51;103024.78;6196286;23;20083;-67
2023/12/15 05:41:23;;;;;;;30.35;17.45;;;;;;;8.61;72.82;103025.63;6195947;23;20472;-66
2023/12/15 05:43:51;;;;;;;32.58;17.10;;;;;;;8.60;72.76;103032.00;6196589;23;20032;-68
2023/12/15 05:46:19;;;;;;;35.92;18.60;;;;;;;8.61;72.82;103042.56;6195789;23;20025;-67
2023/12/15 05:48:47;;;;;;;31.58;17.67;;;;;;;8.61;73.19;103042.56;6196228;23;20025;-67
2023/12/15 05:51:17;;;;;;;35.65;19.13;;;;;;;8.62;72.73;103049.59;6194148;23;20064;-67
2023/12/15 05:53:44;;;;;;;41.33;19.50;;;;;;;8.62;72.83;103049.59;6195710;23;20099;-67
2023/12/15 05:56:24;;;;;;;37.90;19.58;;;;;;;8.64;72.59;103050.28;6196203;23;20082;-68
2023/12/15 05:58:52;;;;;;;37.05;20.58;;;;;;;8.63;72.65;103063.84;6194802;23;20506;-68
2023/12/15 06:01:20;;;;;;;33.03;18.50;;;;;;;8.64;72.80;103062.84;6195419;23;20021;-69
2023/12/15 06:03:48;;;;;;;40.10;20.40;;;;;;;8.65;73.41;103068.06;6195328;23;20048;-67
2023/12/15 06:06:17;;;;;;;37.88;20.30;;;;;;;8.65;73.63;103069.91;6194446;23;20035;-68
2023/12/15 06:08:45;;;;;;;37.58;19.83;;;;;;;8.64;72.96;103052.13;6196498;23;20025;-68
2023/12/15 06:11:13;;;;;;;36.08;20.60;;;;;;;8.65;73.26;103051.97;6195207;23;20029;-68
2023/12/15 06:13:41;;;;;;;32.47;18.88;;;;;;;8.66;73.07;103050.97;6195794;23;20031;-68
2023/12/15 06:16:17;;;;;;;38.80;19.08;;;;;;;8.67;73.33;103052.63;6195390;23;20025;-66
2023/12/15 06:18:45;;;;;;;39.85;20.83;;;;;;;8.64;73.10;103049.44;6196129;23;20060;-74
2023/12/15 06:21:22;;;;;;;41.70;20.85;;;;;;;8.69;73.49;103055.16;6193562;23;20036;-70
2023/12/15 06:23:50;;;;;;;44.53;20.42;;;;;;;8.69;72.94;103052.47;6195495;23;20025;-63
2023/12/15 06:26:19;;;;;;;38.55;20.02;;;;;;;8.70;72.96;103062.19;6196081;23;20027;-70
2023/12/15 06:28:47;;;;;;;42.50;21.45;;;;;;;8.70;73.32;103062.19;6195556;23;20036;-74
2023/12/15 06:31:16;;;;;;;44.05;21.60;;;;;;;8.68;72.89;103075.75;6195490;23;20474;-71
2023/12/15 06:33:43;;;;;;;39.72;19.75;;;;;;;8.69;73.74;103060.50;6196121;23;20083;-67
2023/12/15 06:36:12;;;;;;;32.42;18.65;;;;;;;8.69;72.90;103066.72;6193566;23;20032;-70
2023/12/15 06:38:43;;;;;;;39.58;20.42;;;;;;;8.70;73.32;103086.31;6195298;23;20033;-68
2023/12/15 06:41:11;;;;;;;44.40;22.25;;;;;;;8.69;73.47;103088.16;6193995;23;20025;-68
2023/12/15 06:43:40;;;;;;;37.42;21.23;;;;;;;8.68;73.69;103083.78;6194285;23;20052;-69
2023/12/15 06:46:08;;;;;;;42.55;21.00;;;;;;;8.68;73.49;103094.53;6195045;23;20482;-65
2023/12/15 06:48:36;;;;;;;39.28;22.27;;;;;;;8.69;73.46;103090.84;6195314;23;20025;-66
2023/12/15 06:51:06;;;;;;;37.40;19.02;;;;;;;8.68;73.48;103088.31;6193841;23;20035;-66
2023/12/15 06:53:34;;;;;;;36.83;20.48;;;;;;;8.68;73.39;103085.63;6196086;23;20513;-67
2023/12/15 06:56:04;;;;;;;43.42;21.35;;;;;;;8.70;72.95;103100.56;6194970;23;20411;-69
2023/12/15 06:58:32;;;;;;;43.40;21.15;;;;;;;8.70;72.83;103105.09;6195643;23;20391;-69
2023/12/15 07:01:00;;;;;;;51.15;22.63;;;;;;;8.71;73.75;103094.22;6194686;23;20080;-69
2023/12/15 07:03:28;;;;;;;49.15;25.75;;;;;;;8.66;75.26;103099.22;6195525;23;20044;-69
2023/12/15 07:05:56;;;;;;;53.50;27.00;;;;;;;8.63;75.76;103107.56;6194365;23;20028;-71
2023/12/15 07:08:24;;;;;;;55.28;27.60;;;;;;;8.62;75.58;103116.63;6195017;23;20127;-70
2023/12/15 07:10:52;;;;;;;51.47;25.52;;;;;;;8.62;75.02;103113.94;6195021;23;20035;-70
2023/12/15 07:13:21;;;;;;;52.22;25.15;;;;;;;8.64;75.31;103116.47;6188526;23;20035;-69
2023/12/15 07:15:49;;;;;;;48.72;26.38;;;;;;;8.66;74.72;103127.88;6194689;23;20029;-69
2023/12/15 07:18:17;;;;;;;51.55;25.27;;;;;;;8.66;74.86;103127.88;6195336;23;20020;-69
2023/12/15 07:20:45;;;;;;;54.58;26.90;;;;;;;8.65;74.68;103134.22;6193540;23;20172;-69
2023/12/15 07:23:13;;;;;;;45.13;25.42;;;;;;;8.66;74.92;103139.44;6194409;23;20048;-69
2023/12/15 07:25:41;;;;;;;52.83;26.55;;;;;;;8.69;74.90;103151.66;6194473;23;20032;-69
2023/12/15 07:28:08;;;;;;;49.90;25.33;;;;;;;8.69;74.79;103144.47;6194837;23;20024;-69
2023/12/15 07:30:37;;;;;;;49.72;25.33;;;;;;;8.70;74.51;103150.66;6194683;23;20024;-69
2023/12/15 07:33:05;;;;;;;51.28;26.35;;;;;;;8.71;73.94;103157.72;6194177;23;20024;-69
2023/12/15 07:35:33;;;;;;;45.33;25.30;;;;;;;8.72;74.36;103164.75;6193550;23;20108;-69
2023/12/15 07:38:01;;;;;;;42.03;24.13;;;;;;;8.71;74.09;103163.06;6194947;23;20100;-69
2023/12/15 07:40:29;;;;;;;46.90;24.88;;;;;;;8.71;74.12;103153.19;6195495;23;20052;-69
2023/12/15 07:42:57;;;;;;;48.22;24.05;;;;;;;8.73;74.10;103155.72;6194248;23;20021;-69
2023/12/15 07:45:25;;;;;;;51.38;25.50;;;;;;;8.72;74.26;103170.97;6192339;23;20084;-69
2023/12/15 07:47:56;;;;;;;45.00;22.83;;;;;;;8.81;73.91;103171.88;6194646;23;20021;-70
2023/12/15 07:50:24;;;;;;;43.58;23.83;;;;;;;8.96;73.59;103173.03;6193224;23;20025;-69
2023/12/15 07:52:55;;;;;;;48.40;24.83;;;;;;;9.14;72.34;103171.16;6193765;23;20386;-69
2023/12/15 07:55:22;;;;;;;44.38;23.73;;;;;;;9.30;72.35;103158.88;6192676;23;20040;-69
2023/12/15 07:57:50;;;;;;;46.50;24.27;;;;;;;9.52;71.37;103169.09;6194137;23;20087;-69
2023/12/15 08:00:19;;;;;;;50.42;24.13;;;;;;;9.72;70.35;103170.56;6187991;23;20057;-69
2023/12/15 08:02:47;;;;;;;43.92;23.98;;;;;;;9.90;69.93;103178.56;6189548;23;20025;-69
2023/12/15 08:05:18;;;;;;;40.03;22.27;;;;;;;10.07;68.91;103177.63;6188608;23;20044;-69
2023/12/15 08:07:46;;;;;;;42.50;22.27;;;;;;;10.22;68.64;103187.78;6190579;23;20052;-69
2023/12/15 08:10:13;;;;;;;45.05;22.50;;;;;;;10.35;68.22;103191.69;6189960;23;20494;-69
2023/12/15 08:12:41;;;;;;;45.25;22.83;;;;;;;10.47;67.52;103189.53;6189791;23;20256;-69
2023/12/15 08:15:09;;;;;;;41.22;21.42;;;;;;;10.48;67.63;103193.06;6190353;23;20037;-70
2023/12/15 08:17:37;;;;;;;42.15;21.00;;;;;;;10.41;67.74;103204.47;6190190;23;20411;-69
2023/12/15 08:20:07;;;;;;;40.80;20.92;;;;;;;10.23;68.47;103206.44;6189258;23;20025;-69
2023/12/15 08:22:37;;;;;;;42.05;21.95;;;;;;;10.05;69.21;103211.88;6189568;23;20025;-69
2023/12/15 08:25:05;;;;;;;46.17;22.42;;;;;;;9.91;69.63;103209.78;6190081;23;20024;-69
2023/12/15 08:27:34;;;;;;;43.35;22.10;;;;;;;9.77;70.18;103216.59;6189899;23;20039;-69
2023/12/15 08:30:03;;;;;;;44.17;23.40;;;;;;;9.68;70.69;103236.31;6189966;23;20297;-69
2023/12/15 08:32:31;;;;;;;47.40;23.15;;;;;;;9.57;71.02;103219.63;6191132;23;20028;-69
2023/12/15 08:34:59;;;;;;;44.55;23.38;;;;;;;9.54;71.22;103228.00;6188840;23;20017;-69
2023/12/15 08:37:28;;;;;;;40.15;24.05;;;;;;;9.46;71.61;103228.78;6190135;23;20036;-69
2023/12/15 08:39:57;;;;;;;43.60;22.50;;;;;;;9.40;71.71;103243.66;6189861;23;20075;-69
2023/12/15 08:42:25;;;;;;;39.97;21.98;;;;;;;9.36;72.27;103255.72;6190360;23;20032;-69
2023/12/15 08:44:52;;;;;;;41.78;21.70;;;;;;;9.31;72.11;103260.69;6189926;23;20021;-69
2023/12/15 08:47:20;;;;;;;39.58;22.10;;;;;;;9.28;72.56;103263.69;6189977;23;20439;-69
2023/12/15 08:49:48;;;;;;;43.10;23.08;;;;;;;9.25;72.62;103268.53;6187822;23;20395;-69
2023/12/15 08:52:16;;;;;;;43.40;22.75;;;;;;;9.23;72.78;103275.88;6189961;23;20034;-69
2023/12/15 08:54:44;;;;;;;40.30;22.98;;;;;;;9.18;72.39;103275.50;6189371;23;20232;-69
2023/12/15 08:57:13;;;;;;;46.78;24.95;;;;;;;9.18;73.04;103283.53;6189684;23;20021;-69
2023/12/15 08:59:42;;;;;;;44.10;22.00;;;;;;;9.16;72.88;103291.75;6187784;23;20089;-69
2023/12/15 09:02:11;;;;;;;45.55;23.48;;;;;;;9.14;72.85;103289.22;6190434;23;20664;-69
2023/12/15 09:04:39;;;;;;;41.15;22.75;;;;;;;9.12;73.30;103299.25;6191496;23;20028;-69
2023/12/15 09:07:18;;;;;;;43.08;23.83;;;;;;;9.12;72.93;103290.34;6191981;23;20143;-69
2023/12/15 09:09:46;;;;;;;45.92;22.00;;;;;;;9.17;72.83;103292.59;6191556;23;20029;-69
2023/12/15 09:12:15;;;;;;;37.90;21.63;;;;;;;9.17;72.66;103292.59;6191407;23;20021;-67
2023/12/15 09:14:43;;;;;;;42.30;22.73;;;;;;;9.17;72.45;103293.44;6191068;23;20052;-67
2023/12/15 09:17:13;;;;;;;41.65;21.80;;;;;;;9.17;73.15;103292.59;6192344;23;20103;-67
2023/12/15 09:19:42;;;;;;;38.75;21.48;;;;;;;9.18;72.52;103292.44;6190545;23;20025;-69
2023/12/15 09:22:10;;;;;;;38.95;21.40;;;;;;;9.18;72.61;103297.81;6195135;23;20031;-70
2023/12/15 09:24:38;;;;;;;38.67;23.13;;;;;;;9.18;73.15;103305.00;6193079;23;20021;-69
2023/12/15 09:27:05;;;;;;;38.22;23.02;;;;;;;9.16;72.96;103302.47;6196539;23;20033;-69
2023/12/15 09:29:35;;;;;;;43.47;21.27;;;;;;;9.22;73.10;103317.13;6195458;23;20055;-70
2023/12/15 09:32:06;;;;;;;35.78;20.77;;;;;;;9.39;72.42;103321.66;6195972;23;20159;-68
2023/12/15 09:34:34;;;;;;;38.92;21.27;;;;;;;9.58;71.35;103329.53;6194547;23;20108;-68
2023/12/15 09:37:02;;;;;;;41.13;21.05;;;;;;;9.80;70.91;103333.59;6196763;23;20086;-70
2023/12/15 09:39:30;;;;;;;37.80;19.42;;;;;;;10.00;69.77;103331.56;6195636;23;20061;-69
2023/12/15 09:41:58;;;;;;;40.00;19.80;;;;;;;10.23;69.20;103335.44;6196194;23;20076;-70
2023/12/15 09:44:25;;;;;;;34.40;19.73;;;;;;;10.47;68.34;103344.63;6195221;23;20021;-69
2023/12/15 09:46:57;;;;;;;39.55;20.88;;;;;;;10.64;67.58;103347.22;6196218;23;20028;-69
2023/12/15 09:49:26;;;;;;;39.20;19.15;;;;;;;10.80;66.94;103351.00;6194839;23;20028;-68
2023/12/15 09:51:54;;;;;;;33.80;19.50;;;;;;;10.91;66.61;103354.22;6196167;23;20032;-68
2023/12/15 09:54:22;;;;;;;41.00;20.20;;;;;;;11.04;65.96;103362.69;6196028;23;20021;-68
2023/12/15 09:56:50;;;;;;;38.13;19.92;;;;;;;11.13;66.02;103371.63;6195955;23;20029;-70
2023/12/15 09:59:19;;;;;;;36.35;18.52;;;;;;;11.17;65.47;103377.53;6195429;23;20055;-69
2023/12/15 10:01:47;;;;;;;33.95;19.98;;;;;;;11.18;65.83;103387.28;6195355;23;20025;-70
2023/12/15 10:04:16;;;;;;;39.85;19.63;;;;;;;11.20;65.57;103393.34;6193174;23;20096;-67
2023/12/15 10:06:44;;;;;;;34.10;19.63;;;;;;;11.14;65.99;103385.94;6194730;23;20039;-69
2023/12/15 10:09:13;;;;;;;35.25;19.63;;;;;;;10.99;66.26;103383.84;6196101;23;20051;-69
2023/12/15 10:11:44;;;;;;;29.17;18.17;;;;;;;10.76;66.97;103386.28;6196995;23;20031;-70
2023/12/15 10:14:14;;;;;;;29.83;16.90;;;;;;;10.61;67.65;103393.25;6196024;23;20021;-70
2023/12/15 10:16:42;;;;;;;33.92;17.85;;;;;;;10.42;68.39;103405.09;6196670;23;20052;-70
2023/12/15 10:19:10;;;;;;;34.05;19.73;;;;;;;10.29;68.97;103406.53;6195341;23;20400;-70
2023/12/15 10:21:39;;;;;;;30.67;19.58;;;;;;;10.18;69.42;103406.75;6196154;23;20025;-69
2023/12/15 10:24:21;;;;;;;32.83;18.85;;;;;;;10.08;69.86;103407.69;6196290;23;20072;-69
2023/12/15 10:26:49;;;;;;;36.92;18.55;;;;;;;10.01;70.03;103411.16;6196213;23;20449;-69
2023/12/15 10:29:19;;;;;;;37.30;20.02;;;;;;;9.93;70.45;103411.94;6195478;23;20024;-69
2023/12/15 10:31:49;;;;;;;37.13;20.92;;;;;;;9.89;70.90;103431.19;6196655;23;20466;-70
2023/12/15 10:34:18;;;;;;;33.67;19.02;;;;;;;9.83;71.24;103432.66;6194931;23;20514;-69
2023/12/15 10:36:47;;;;;;;40.88;18.40;;;;;;;9.73;71.06;103424.66;6195468;23;20200;-69
2023/12/15 10:39:17;;;;;;;38.60;19.10;;;;;;;9.76;71.50;103439.63;6195814;23;20205;-69
2023/12/15 10:41:45;;;;;;;37.88;20.33;;;;;;;9.70;71.70;103437.56;6195989;23;20052;-69
2023/12/15 10:44:13;;;;;;;38.97;19.27;;;;;;;9.71;71.38;103450.00;6195562;23;20025;-69
2023/12/15 10:46:43;;;;;;;35.97;19.85;;;;;;;9.67;72.00;103438.72;6196361;23;20045;-69
2023/12/15 10:49:11;;;;;;;38.55;21.42;;;;;;;9.65;72.02;103442.53;6194550;23;20036;-69
2023/12/15 10:51:40;;;;;;;29.02;17.48;;;;;;;9.60;71.81;103450.22;6195919;23;20044;-69
2023/12/15 10:54:10;;;;;;;34.80;20.08;;;;;;;9.58;71.97;103449.50;6196171;23;20025;-69
2023/12/15 10:56:39;;;;;;;41.00;20.23;;;;;;;9.57;72.05;103462.09;6196168;23;20051;-69
2023/12/15 10:59:07;;;;;;;33.90;18.55;;;;;;;9.57;72.40;103480.03;6195539;23;20029;-69
2023/12/15 11:01:38;;;;;;;33.60;18.83;;;;;;;9.56;72.46;103476.50;6195955;23;20025;-69
2023/12/15 11:04:17;;;;;;;32.97;18.10;;;;;;;9.55;72.07;103471.28;6195834;23;20029;-69
2023/12/15 11:06:47;;;;;;;30.75;17.00;;;;;;;9.54;72.54;103474.97;6195855;23;20050;-69
2023/12/15 11:09:28;;;;;;;35.05;17.92;;;;;;;9.52;72.38;103485.03;6195513;23;20048;-69
2023/12/15 11:12:29;;;;;;;33.30;18.42;;;;;;;9.51;72.55;103491.38;6195592;23;20419;-69
2023/12/15 11:15:03;;;;;;;36.70;18.48;;;;;;;9.49;72.62;103488.84;6195715;23;20028;-69
2023/12/15 11:17:32;;;;;;;35.45;17.70;;;;;;;9.48;72.61;103487.16;6195790;23;20510;-69
2023/12/15 11:20:06;;;;;;;34.60;18.30;;;;;;;9.49;72.76;103493.38;6194166;23;20029;-69
2023/12/15 11:22:49;;;;;;;29.83;17.15;;;;;;;9.49;72.42;103498.75;6195552;23;20025;-69
2023/12/15 11:25:19;;;;;;;29.98;17.67;;;;;;;9.47;72.67;103493.53;6195740;23;20025;-69